Time;durP1;ratioP1;P1;durP2;ratioP2;P2;SDS_P1;SDS_P2;PMS_P1;PMS_P2;Temp;Humidity;BMP_temperature;BMP_pressure;BME280_temperature;BME280_humidity;BME280_pressure;Samples;Min_cycle;Max_cycle;Signal;HPM_P1;HPM_P2
2023/12/04 00:00:46;;;;;;;47.13;27.40;;;0.90;99.90;;;;;;5072449;28;20048;-90
2023/12/04 00:03:11;;;;;;;50.97;28.00;;;0.80;99.90;;;;;;5073526;28;20048;-89
2023/12/04 00:05:37;;;;;;;51.10;27.30;;;0.80;99.90;;;;;;5072470;28;20037;-90
2023/12/04 00:08:03;;;;;;;49.50;29.07;;;0.80;99.90;;;;;;5072398;28;20091;-89
2023/12/04 00:10:29;;;;;;;54.77;29.40;;;0.80;99.90;;;;;;5055906;28;20059;-89
2023/12/04 00:12:54;;;;;;;44.27;28.03;;;0.90;99.90;;;;;;5074277;28;20045;-91
2023/12/04 00:15:21;;;;;;;52.37;27.87;;;0.80;99.90;;;;;;5075477;28;20044;-91
2023/12/04 00:17:47;;;;;;;46.70;27.75;;;0.80;99.90;;;;;;5057978;28;20044;-91
2023/12/04 00:20:13;;;;;;;51.23;28.03;;;0.80;99.90;;;;;;5074590;28;20055;-90
2023/12/04 00:22:38;;;;;;;42.77;26.40;;;0.80;99.90;;;;;;5075511;28;20041;-89
2023/12/04 00:25:05;;;;;;;46.93;27.97;;;0.80;99.90;;;;;;5075041;28;20298;-89
2023/12/04 00:27:31;;;;;;;49.97;27.90;;;0.90;99.90;;;;;;5075004;28;20515;-90
2023/12/04 00:29:57;;;;;;;43.97;26.57;;;0.90;99.90;;;;;;5073736;28;20131;-90
2023/12/04 00:32:23;;;;;;;46.80;26.07;;;0.80;99.90;;;;;;5074822;28;20040;-90
2023/12/04 00:34:49;;;;;;;48.88;28.10;;;0.80;99.90;;;;;;5074042;28;20086;-89
2023/12/04 00:37:14;;;;;;;50.70;27.23;;;0.80;99.90;;;;;;5074776;28;20045;-89
2023/12/04 00:39:40;;;;;;;45.67;25.93;;;0.80;99.90;;;;;;5074027;28;20139;-88
2023/12/04 00:42:06;;;;;;;44.90;26.40;;;0.90;99.90;;;;;;5074445;28;20109;-88
2023/12/04 00:44:31;;;;;;;48.50;26.63;;;0.80;99.90;;;;;;5073500;28;20059;-89
2023/12/04 00:46:57;;;;;;;43.73;25.57;;;0.90;99.90;;;;;;5074728;28;20051;-89
2023/12/04 00:49:23;;;;;;;45.10;25.93;;;0.90;99.90;;;;;;5074318;28;20067;-88
2023/12/04 00:51:49;;;;;;;45.88;25.55;;;0.90;99.90;;;;;;5073576;28;20052;-88
2023/12/04 00:54:15;;;;;;;46.53;26.67;;;0.90;99.90;;;;;;5074318;28;20503;-87
2023/12/04 00:56:41;;;;;;;42.00;25.67;;;0.80;99.90;;;;;;5073426;28;20286;-88
2023/12/04 00:59:10;;;;;;;42.60;26.40;;;0.90;99.90;;;;;;5072757;28;20056;-83
2023/12/04 01:01:37;;;;;;;47.53;27.38;;;0.90;99.90;;;;;;5074212;28;20319;-88
2023/12/04 01:04:03;;;;;;;40.00;26.00;;;0.90;99.90;;;;;;5074243;28;20076;-87
2023/12/04 01:06:29;;;;;;;46.30;26.25;;;0.90;99.90;;;;;;5074084;28;20080;-87
2023/12/04 01:08:55;;;;;;;47.67;26.83;;;1.00;99.90;;;;;;5074462;28;20131;-87
2023/12/04 01:11:21;;;;;;;45.75;26.98;;;0.90;99.90;;;;;;5074967;28;20076;-87
2023/12/04 01:13:48;;;;;;;44.30;25.67;;;0.90;99.90;;;;;;5076133;28;20484;-87
2023/12/04 01:16:14;;;;;;;42.10;26.42;;;0.90;99.90;;;;;;5074915;28;20044;-88
2023/12/04 01:18:40;;;;;;;45.60;26.38;;;0.90;99.90;;;;;;5076012;28;20098;-87
2023/12/04 01:21:08;;;;;;;41.42;26.75;;;1.00;99.90;;;;;;5073338;28;20496;-86
2023/12/04 01:23:37;;;;;;;44.80;26.38;;;1.00;99.90;;;;;;5075937;28;20041;-87
2023/12/04 01:26:04;;;;;;;43.40;26.38;;;0.90;99.90;;;;;;5073562;28;20392;-87
2023/12/04 01:28:30;;;;;;;45.42;27.95;;;0.90;99.90;;;;;;5076471;28;20178;-87
2023/12/04 01:30:55;;;;;;;41.20;25.40;;;0.90;99.90;;;;;;5077345;28;20056;-88
2023/12/04 01:33:21;;;;;;;44.93;26.53;;;1.00;99.90;;;;;;5076678;28;20056;-88
2023/12/04 01:35:47;;;;;;;44.63;27.00;;;1.10;99.90;;;;;;5081389;28;20110;-88
2023/12/04 01:38:12;;;;;;;46.93;27.47;;;0.90;99.90;;;;;;5074907;28;20049;-87
2023/12/04 01:40:38;;;;;;;47.47;27.80;;;1.00;99.90;;;;;;5074462;28;20473;-88
2023/12/04 01:43:05;;;;;;;46.90;26.57;;;0.90;99.90;;;;;;5073910;28;20110;-88
2023/12/04 01:45:31;;;;;;;41.08;26.05;;;1.00;99.90;;;;;;5072666;28;20361;-89
2023/12/04 01:47:58;;;;;;;42.37;26.03;;;1.00;99.90;;;;;;5073619;28;20444;-89
2023/12/04 01:50:24;;;;;;;35.97;23.95;;;1.00;99.90;;;;;;5073624;28;20114;-89
2023/12/04 01:52:52;;;;;;;43.58;26.35;;;1.00;99.90;;;;;;5055884;28;20054;-88
2023/12/04 01:55:18;;;;;;;40.03;25.70;;;1.00;99.90;;;;;;5072151;28;20113;-87
2023/12/04 01:57:44;;;;;;;46.80;27.03;;;1.00;99.90;;;;;;5072179;28;20052;-87
2023/12/04 02:00:11;;;;;;;44.33;27.20;;;1.00;99.90;;;;;;5071636;28;20064;-87
2023/12/04 02:02:43;;;;;;;41.17;25.95;;;1.00;99.90;;;;;;5071110;28;20481;-89
2023/12/04 02:05:10;;;;;;;40.10;25.55;;;1.00;99.90;;;;;;5071241;28;20036;-87
2023/12/04 02:07:36;;;;;;;45.20;26.48;;;1.00;99.90;;;;;;5071049;28;20079;-87
2023/12/04 02:10:03;;;;;;;46.67;26.50;;;1.00;99.90;;;;;;5071225;28;20044;-87
2023/12/04 02:12:29;;;;;;;43.03;25.50;;;1.00;99.90;;;;;;5070946;28;20044;-89
2023/12/04 02:14:55;;;;;;;41.13;24.90;;;0.90;99.90;;;;;;5072283;28;20052;-88
2023/12/04 02:17:22;;;;;;;47.27;26.63;;;1.00;99.90;;;;;;5073078;28;20602;-88
2023/12/04 02:19:48;;;;;;;43.10;26.92;;;1.00;99.90;;;;;;5072418;28;20390;-89
2023/12/04 02:22:14;;;;;;;47.60;28.43;;;1.00;99.90;;;;;;5073290;28;20052;-88
2023/12/04 02:24:40;;;;;;;47.33;27.63;;;1.00;99.90;;;;;;5072845;28;20084;-87
2023/12/04 02:27:20;;;;;;;45.00;28.08;;;1.00;99.90;;;;;;5073276;28;20086;-88
2023/12/04 02:30:01;;;;;;;53.38;30.30;;;1.00;99.90;;;;;;5077094;28;20044;-88
2023/12/04 02:32:32;;;;;;;48.13;28.25;;;1.00;99.90;;;;;;5059368;28;20052;-88
2023/12/04 02:35:02;;;;;;;48.30;27.45;;;1.00;99.90;;;;;;5077315;28;20094;-88
2023/12/04 02:37:28;;;;;;;46.08;26.90;;;1.00;99.90;;;;;;5075672;28;20554;-88
2023/12/04 02:39:55;;;;;;;52.05;28.30;;;1.00;99.90;;;;;;5077067;28;20047;-87
2023/12/04 02:42:21;;;;;;;42.80;26.98;;;1.00;99.90;;;;;;5059108;28;20048;-87
2023/12/04 02:44:48;;;;;;;43.97;27.23;;;1.00;99.90;;;;;;5076927;28;20080;-88
2023/12/04 02:47:14;;;;;;;47.22;28.42;;;1.10;99.90;;;;;;5076772;28;20055;-87
2023/12/04 02:49:40;;;;;;;45.67;27.45;;;1.00;99.90;;;;;;5076610;28;20056;-88
2023/12/04 02:52:06;;;;;;;44.93;26.93;;;1.10;99.90;;;;;;5076773;28;20396;-87
2023/12/04 02:54:31;;;;;;;47.93;28.13;;;1.10;99.90;;;;;;5075533;28;20098;-86
2023/12/04 02:56:57;;;;;;;44.13;26.80;;;1.00;99.90;;;;;;5059127;28;20040;-87
2023/12/04 02:59:23;;;;;;;55.33;28.97;;;1.00;99.90;;;;;;5076424;28;20447;-85
2023/12/04 03:01:48;;;;;;;41.27;25.87;;;0.90;99.90;;;;;;5075700;28;20110;-86
2023/12/04 03:04:14;;;;;;;41.07;25.60;;;1.00;99.90;;;;;;5076487;28;20124;-85
2023/12/04 03:06:40;;;;;;;47.37;27.73;;;1.00;99.90;;;;;;5075391;28;20067;-85
2023/12/04 03:09:05;;;;;;;54.33;29.30;;;1.00;99.90;;;;;;5076780;28;20055;-85
2023/12/04 03:11:31;;;;;;;53.93;28.77;;;1.00;99.90;;;;;;5058702;28;20048;-84
2023/12/04 03:13:59;;;;;;;51.30;27.17;;;1.00;99.90;;;;;;5076382;28;20049;-85
2023/12/04 03:16:25;;;;;;;48.42;26.88;;;1.10;99.90;;;;;;5058621;28;20056;-84
2023/12/04 03:18:50;;;;;;;55.17;28.90;;;1.00;99.90;;;;;;5075679;28;20049;-84
2023/12/04 03:21:16;;;;;;;50.97;26.93;;;1.00;99.90;;;;;;5076208;28;20496;-84
2023/12/04 03:23:42;;;;;;;53.33;28.80;;;1.10;99.90;;;;;;5075886;28;20091;-84
2023/12/04 03:26:09;;;;;;;46.87;26.67;;;1.10;99.90;;;;;;5074969;28;20150;-84
2023/12/04 03:28:34;;;;;;;53.25;28.17;;;1.10;99.90;;;;;;5075898;28;20118;-84
2023/12/04 03:31:00;;;;;;;47.60;26.83;;;1.10;99.90;;;;;;5075049;28;20076;-85
2023/12/04 03:33:26;;;;;;;60.37;28.60;;;1.10;99.90;;;;;;5075821;28;20036;-85
2023/12/04 03:35:51;;;;;;;48.60;27.33;;;1.10;99.90;;;;;;5075395;28;20066;-84
2023/12/04 03:38:17;;;;;;;46.87;26.27;;;1.10;99.90;;;;;;5075970;28;20072;-85
2023/12/04 03:40:43;;;;;;;42.30;25.20;;;1.00;99.90;;;;;;5075594;28;20040;-87
2023/12/04 03:43:08;;;;;;;38.70;24.07;;;1.10;99.90;;;;;;5058430;28;20045;-87
2023/12/04 03:45:34;;;;;;;49.13;25.93;;;1.10;99.90;;;;;;5075674;28;20388;-86
2023/12/04 03:48:00;;;;;;;45.20;24.77;;;1.10;99.90;;;;;;5074796;28;20086;-89
2023/12/04 03:50:25;;;;;;;52.30;26.73;;;1.10;99.90;;;;;;5075908;28;20059;-87
2023/12/04 03:52:51;;;;;;;48.30;24.67;;;1.00;99.90;;;;;;5074344;28;20476;-86
2023/12/04 03:55:19;;;;;;;48.87;26.27;;;1.00;99.90;;;;;;5074506;28;20127;-87
2023/12/04 03:57:45;;;;;;;46.13;25.40;;;1.10;99.90;;;;;;5075463;28;20127;-83
2023/12/04 04:00:11;;;;;;;44.88;25.45;;;1.10;99.90;;;;;;5073999;28;20075;-84
2023/12/04 04:02:39;;;;;;;43.25;24.63;;;1.10;99.90;;;;;;5075318;28;20055;-83
2023/12/04 04:05:05;;;;;;;45.72;25.60;;;1.00;99.90;;;;;;5075552;28;20124;-85
2023/12/04 04:07:31;;;;;;;38.60;22.73;;;1.00;99.90;;;;;;5075438;28;20569;-83
2023/12/04 04:09:57;;;;;;;40.67;23.43;;;1.00;99.90;;;;;;5075506;28;20052;-85
2023/12/04 04:12:23;;;;;;;42.95;23.42;;;1.00;99.90;;;;;;5074544;28;20048;-85
2023/12/04 04:14:49;;;;;;;38.70;22.10;;;1.00;99.90;;;;;;5078156;28;20060;-86
2023/12/04 04:17:14;;;;;;;50.00;25.47;;;1.00;99.90;;;;;;5075245;28;20056;-85
2023/12/04 04:19:41;;;;;;;39.63;22.40;;;1.00;99.90;;;;;;5075135;28;20049;-87
2023/12/04 04:22:06;;;;;;;39.38;22.67;;;1.00;99.90;;;;;;5074563;28;20052;-88
2023/12/04 04:24:32;;;;;;;41.63;23.60;;;1.00;99.90;;;;;;5074928;28;20473;-88
2023/12/04 04:26:58;;;;;;;46.90;24.43;;;1.00;99.90;;;;;;5057407;28;20054;-88
2023/12/04 04:29:24;;;;;;;41.63;22.77;;;1.00;99.90;;;;;;5075169;28;20041;-90
2023/12/04 04:31:50;;;;;;;39.88;22.77;;;1.10;99.90;;;;;;5057058;28;20457;-91
2023/12/04 04:34:15;;;;;;;42.93;23.53;;;1.00;99.90;;;;;;5074636;28;20048;-92
2023/12/04 04:36:43;;;;;;;52.47;26.07;;;1.00;99.90;;;;;;5082414;28;20051;-91
2023/12/04 04:39:10;;;;;;;37.20;22.40;;;1.00;99.90;;;;;;5094409;28;20054;-91
2023/12/04 04:41:36;;;;;;;39.38;22.65;;;1.00;99.90;;;;;;5064407;28;20077;-89
2023/12/04 04:44:02;;;;;;;42.10;23.40;;;1.00;99.90;;;;;;5077781;28;20077;-93
2023/12/04 04:46:28;;;;;;;36.10;21.17;;;1.00;99.90;;;;;;5075725;28;20051;-93
2023/12/04 04:48:54;;;;;;;40.42;22.50;;;1.00;99.90;;;;;;5075192;28;20133;-93
2023/12/04 04:51:19;;;;;;;36.87;21.70;;;0.90;99.90;;;;;;5075065;28;20103;-93
2023/12/04 04:53:45;;;;;;;38.53;21.00;;;1.00;99.90;;;;;;5075443;28;20044;-92
2023/12/04 04:56:11;;;;;;;39.83;22.90;;;1.00;99.90;;;;;;5074468;28;20051;-92
2023/12/04 04:58:37;;;;;;;44.90;23.57;;;1.00;99.90;;;;;;5074018;28;20080;-93
2023/12/04 05:01:03;;;;;;;39.30;22.07;;;1.00;99.90;;;;;;5073884;28;20052;-93
2023/12/04 05:03:28;;;;;;;35.07;22.20;;;1.00;99.90;;;;;;5073980;28;20045;-93
2023/12/04 05:05:54;;;;;;;38.00;21.90;;;0.90;99.90;;;;;;5073795;28;20477;-93
2023/12/04 05:08:20;;;;;;;37.43;21.90;;;0.90;99.90;;;;;;5074788;28;20048;-93
2023/12/04 05:10:45;;;;;;;36.20;21.47;;;1.00;99.90;;;;;;5074075;28;20461;-91
2023/12/04 05:13:11;;;;;;;40.43;22.27;;;1.00;99.90;;;;;;5074495;28;20050;-91
2023/12/04 05:15:36;;;;;;;38.57;21.63;;;0.90;99.90;;;;;;5073216;28;20480;-90
2023/12/04 05:18:02;;;;;;;36.10;21.30;;;1.00;99.90;;;;;;5073557;28;20109;-91
2023/12/04 05:20:28;;;;;;;37.73;21.93;;;1.00;99.90;;;;;;5074257;28;20059;-90
2023/12/04 05:22:54;;;;;;;39.10;22.20;;;1.00;99.90;;;;;;5056202;28;20045;-90
2023/12/04 05:25:19;;;;;;;37.23;19.83;;;0.80;99.90;;;;;;5074336;28;20048;-90
2023/12/04 05:27:45;;;;;;;34.80;20.83;;;1.00;99.90;;;;;;5072856;28;20044;-90
2023/12/04 05:30:11;;;;;;;37.97;21.77;;;1.10;99.90;;;;;;5072912;28;20052;-90
2023/12/04 05:32:37;;;;;;;33.53;19.90;;;1.00;99.90;;;;;;5073985;28;20056;-91
2023/12/04 05:35:03;;;;;;;34.33;20.90;;;1.00;99.90;;;;;;5073850;28;20129;-90
2023/12/04 05:37:29;;;;;;;34.33;19.70;;;1.00;99.90;;;;;;5073769;28;20048;-88
2023/12/04 05:39:54;;;;;;;31.03;18.57;;;1.10;99.90;;;;;;5072420;28;20105;-89
2023/12/04 05:42:20;;;;;;;31.53;18.77;;;1.00;99.90;;;;;;5073858;28;20052;-89
2023/12/04 05:44:46;;;;;;;31.73;18.07;;;1.00;99.90;;;;;;5073469;28;20049;-90
2023/12/04 05:47:11;;;;;;;30.60;19.47;;;1.10;99.90;;;;;;5073780;28;20044;-89
2023/12/04 05:49:37;;;;;;;31.70;17.70;;;1.00;99.90;;;;;;5072976;28;20135;-89
2023/12/04 05:52:03;;;;;;;30.60;19.47;;;1.00;99.90;;;;;;5072617;28;20522;-90
2023/12/04 05:54:29;;;;;;;33.77;20.70;;;1.00;99.90;;;;;;5072846;28;20090;-90
2023/12/04 05:56:54;;;;;;;33.63;20.23;;;1.00;99.90;;;;;;5073417;28;20352;-89
2023/12/04 05:59:20;;;;;;;32.07;19.27;;;1.00;99.90;;;;;;5072403;28;20095;-88
2023/12/04 06:01:46;;;;;;;27.93;18.27;;;1.00;99.90;;;;;;5071798;28;20052;-90
2023/12/04 06:04:11;;;;;;;32.77;19.90;;;1.00;99.90;;;;;;5071723;28;20044;-88
2023/12/04 06:06:37;;;;;;;30.60;19.20;;;1.00;99.90;;;;;;5073397;28;20388;-88
2023/12/04 06:09:03;;;;;;;34.80;20.50;;;1.00;99.90;;;;;;5073196;28;20044;-88
2023/12/04 06:11:29;;;;;;;32.00;19.37;;;1.10;99.90;;;;;;5073395;28;20468;-88
2023/12/04 06:13:54;;;;;;;33.73;21.27;;;1.00;99.90;;;;;;5055592;28;20071;-89
2023/12/04 06:16:20;;;;;;;28.47;18.97;;;1.00;99.90;;;;;;5073316;28;20048;-89
2023/12/04 06:18:46;;;;;;;31.43;18.87;;;1.00;99.90;;;;;;5073149;28;20123;-88
2023/12/04 06:21:11;;;;;;;29.77;18.20;;;1.10;99.90;;;;;;5072191;28;20498;-89
2023/12/04 06:23:37;;;;;;;29.10;18.63;;;0.90;99.90;;;;;;5073205;28;20040;-87
2023/12/04 06:26:03;;;;;;;29.50;18.60;;;0.90;99.90;;;;;;5073202;28;20536;-90
2023/12/04 06:28:29;;;;;;;33.33;17.85;;;1.00;99.90;;;;;;5072574;28;20055;-90
2023/12/04 06:30:55;;;;;;;26.88;18.40;;;1.00;99.90;;;;;;5077357;28;20098;-89
2023/12/04 06:33:21;;;;;;;29.27;19.40;;;1.00;99.90;;;;;;5073084;28;20040;-82
2023/12/04 06:35:47;;;;;;;30.40;18.57;;;1.00;99.90;;;;;;5072813;28;20046;-82
2023/12/04 06:38:16;;;;;;;30.70;18.80;;;1.00;99.90;;;;;;5073104;28;20820;-86
2023/12/04 06:40:42;;;;;;;27.02;17.63;;;1.00;99.90;;;;;;5073007;28;20087;-85
2023/12/04 06:43:08;;;;;;;28.20;17.58;;;1.00;99.90;;;;;;5072682;28;20049;-85
2023/12/04 06:45:34;;;;;;;27.93;17.53;;;1.00;99.90;;;;;;5073089;28;20048;-82
2023/12/04 06:48:00;;;;;;;30.52;18.77;;;0.90;99.90;;;;;;5072984;28;20286;-81
2023/12/04 06:50:26;;;;;;;27.60;17.48;;;0.90;99.90;;;;;;5072878;28;20052;-79
2023/12/04 06:52:52;;;;;;;27.23;16.83;;;0.90;99.90;;;;;;5071608;28;20106;-84
2023/12/04 06:55:18;;;;;;;25.03;16.73;;;1.00;99.90;;;;;;5072768;28;20045;-82
2023/12/04 06:57:44;;;;;;;27.23;16.77;;;0.90;99.90;;;;;;5071662;28;20044;-83
2023/12/04 07:00:14;;;;;;;24.93;15.83;;;0.90;99.90;;;;;;5072062;28;20072;-82
2023/12/04 07:02:40;;;;;;;24.83;15.85;;;0.90;99.90;;;;;;5072625;28;20086;-81
2023/12/04 07:05:06;;;;;;;23.60;15.80;;;0.90;99.90;;;;;;5071257;28;20127;-82
2023/12/04 07:07:32;;;;;;;22.50;15.25;;;0.90;99.90;;;;;;5072248;28;20044;-82
2023/12/04 07:09:58;;;;;;;23.80;16.50;;;0.90;99.90;;;;;;5072576;28;20056;-82
2023/12/04 07:12:24;;;;;;;27.75;17.17;;;0.90;99.90;;;;;;5072582;28;20480;-82
2023/12/04 07:14:50;;;;;;;24.60;15.13;;;0.90;99.90;;;;;;5074254;28;20048;-83
2023/12/04 07:17:16;;;;;;;23.43;14.97;;;0.90;99.90;;;;;;5076269;28;20078;-82
2023/12/04 07:19:42;;;;;;;24.45;15.45;;;0.90;99.90;;;;;;5058583;28;20457;-81
2023/12/04 07:22:08;;;;;;;27.23;17.00;;;0.90;99.90;;;;;;5075889;28;20084;-82
2023/12/04 07:24:34;;;;;;;26.40;15.43;;;0.90;99.90;;;;;;5074829;28;20082;-82
2023/12/04 07:27:00;;;;;;;23.27;14.97;;;0.90;99.90;;;;;;5075946;28;20070;-81
2023/12/04 07:29:25;;;;;;;24.23;16.67;;;0.90;99.90;;;;;;5075125;28;20516;-81
2023/12/04 07:31:51;;;;;;;25.10;15.57;;;0.90;99.90;;;;;;5076072;28;20477;-84
2023/12/04 07:34:17;;;;;;;23.83;14.67;;;0.90;99.90;;;;;;5076084;28;20124;-82
2023/12/04 07:36:44;;;;;;;22.40;14.60;;;1.00;99.90;;;;;;5076044;28;20044;-82
2023/12/04 07:39:10;;;;;;;23.25;14.23;;;0.90;99.90;;;;;;5074822;28;20048;-82
2023/12/04 07:41:36;;;;;;;20.45;13.32;;;0.90;99.90;;;;;;5075635;28;20481;-81
2023/12/04 07:44:03;;;;;;;19.95;13.82;;;1.00;99.90;;;;;;5075543;28;20052;-81
2023/12/04 07:46:29;;;;;;;20.73;13.45;;;1.00;99.90;;;;;;5075891;28;20427;-82
2023/12/04 07:48:55;;;;;;;20.92;13.45;;;0.90;99.90;;;;;;5075687;28;20040;-82
2023/12/04 07:51:21;;;;;;;19.53;13.10;;;0.90;99.90;;;;;;5075756;28;20392;-82
2023/12/04 07:53:47;;;;;;;20.40;13.33;;;1.00;99.90;;;;;;5075556;28;20046;-82
2023/12/04 07:56:13;;;;;;;18.48;12.77;;;0.90;99.90;;;;;;5074474;28;20396;-81
2023/12/04 07:58:39;;;;;;;18.73;13.18;;;0.90;99.90;;;;;;5075576;28;20052;-82
2023/12/04 08:01:05;;;;;;;17.45;11.45;;;1.00;99.90;;;;;;5074835;28;20078;-81
2023/12/04 08:03:31;;;;;;;17.55;11.63;;;1.00;99.90;;;;;;5074456;28;20048;-81
2023/12/04 08:05:58;;;;;;;21.30;13.68;;;0.90;99.90;;;;;;5075392;28;20110;-82
2023/12/04 08:08:24;;;;;;;19.50;12.52;;;0.90;99.90;;;;;;5074684;28;20120;-82
2023/12/04 08:10:50;;;;;;;17.40;11.77;;;0.90;99.90;;;;;;5075327;28;20098;-81
2023/12/04 08:13:16;;;;;;;20.37;12.33;;;1.00;99.90;;;;;;5075141;28;20044;-82
2023/12/04 08:15:43;;;;;;;17.35;11.73;;;1.00;99.90;;;;;;5075307;28;20127;-82
2023/12/04 08:18:09;;;;;;;16.83;11.23;;;1.00;99.90;;;;;;5075003;28;20048;-82
2023/12/04 08:20:35;;;;;;;17.92;12.25;;;0.90;99.90;;;;;;5075328;28;20086;-82
2023/12/04 08:23:01;;;;;;;19.23;11.37;;;1.00;99.90;;;;;;5075014;28;20048;-82
2023/12/04 08:25:26;;;;;;;18.40;11.63;;;1.00;99.90;;;;;;5072914;28;20044;-81
2023/12/04 08:27:52;;;;;;;15.90;10.53;;;1.00;99.90;;;;;;5074966;28;20048;-81
2023/12/04 08:30:18;;;;;;;15.20;9.53;;;1.00;99.90;;;;;;5074873;28;20051;-81
2023/12/04 08:32:44;;;;;;;15.93;9.77;;;1.00;99.90;;;;;;5075035;28;20413;-81
2023/12/04 08:35:09;;;;;;;15.90;10.63;;;1.00;99.90;;;;;;5074642;28;20151;-81
2023/12/04 08:37:35;;;;;;;16.90;10.63;;;1.00;99.90;;;;;;5074826;28;20050;-81
2023/12/04 08:40:02;;;;;;;17.43;10.57;;;1.10;99.90;;;;;;5074638;28;20037;-82
2023/12/04 08:42:29;;;;;;;15.80;10.82;;;1.00;99.90;;;;;;5074931;28;20048;-81
2023/12/04 08:44:55;;;;;;;14.82;10.25;;;1.10;99.90;;;;;;5074587;28;20051;-81
2023/12/04 08:47:20;;;;;;;15.67;11.30;;;1.10;99.90;;;;;;5073505;28;20431;-81
2023/12/04 08:49:46;;;;;;;16.70;9.50;;;1.00;99.90;;;;;;5074744;28;20072;-81
2023/12/04 08:52:12;;;;;;;15.67;10.20;;;1.10;99.90;;;;;;5074231;28;20503;-82
2023/12/04 08:54:44;;;;;;;15.90;11.13;;;1.00;99.90;;;;;;5074444;28;20041;-81
2023/12/04 08:57:10;;;;;;;13.63;9.30;;;1.10;99.90;;;;;;5073283;28;20083;-82
2023/12/04 08:59:36;;;;;;;15.20;9.52;;;1.10;99.90;;;;;;5074554;28;20079;-81
2023/12/04 09:02:04;;;;;;;14.27;9.77;;;1.10;99.90;;;;;;5074188;28;20053;-83
2023/12/04 09:04:31;;;;;;;13.45;8.57;;;1.10;99.90;;;;;;5074154;28;20090;-82
2023/12/04 09:06:57;;;;;;;12.27;8.70;;;1.10;99.90;;;;;;5073238;28;20048;-81
2023/12/04 09:09:23;;;;;;;17.17;10.07;;;1.10;99.90;;;;;;5073693;28;20037;-82
2023/12/04 09:11:49;;;;;;;13.93;9.80;;;1.10;99.90;;;;;;5074143;28;20052;-82
2023/12/04 09:14:15;;;;;;;12.90;8.47;;;1.10;99.90;;;;;;5073844;28;20044;-82
2023/12/04 09:16:41;;;;;;;12.48;8.70;;;1.20;99.90;;;;;;5074307;28;20052;-81
2023/12/04 09:19:07;;;;;;;13.07;8.65;;;1.10;99.90;;;;;;5073786;28;20056;-81
2023/12/04 09:21:33;;;;;;;12.87;8.37;;;1.10;99.90;;;;;;5074057;28;20045;-81
2023/12/04 09:23:59;;;;;;;12.13;7.68;;;1.10;99.90;;;;;;5074020;28;20055;-81
2023/12/04 09:26:25;;;;;;;14.63;8.33;;;1.10;99.90;;;;;;5073710;28;20055;-82
2023/12/04 09:28:50;;;;;;;12.30;8.17;;;1.10;99.90;;;;;;5074023;28;20048;-81
2023/12/04 09:31:16;;;;;;;12.67;7.97;;;1.10;99.90;;;;;;5073627;28;20105;-81
2023/12/04 09:33:42;;;;;;;12.50;8.40;;;1.00;99.90;;;;;;5073728;28;20043;-81
2023/12/04 09:36:08;;;;;;;12.10;7.97;;;1.20;99.90;;;;;;5072499;28;20094;-82
2023/12/04 09:38:34;;;;;;;13.93;8.07;;;1.20;99.90;;;;;;5072761;28;20345;-81
2023/12/04 09:41:02;;;;;;;13.35;8.88;;;1.20;99.90;;;;;;5073213;28;20415;-82
2023/12/04 09:43:32;;;;;;;13.07;8.63;;;1.20;99.90;;;;;;5073359;28;20044;-81
2023/12/04 09:46:01;;;;;;;12.95;8.48;;;1.20;99.90;;;;;;5073554;28;20084;-82
2023/12/04 09:48:27;;;;;;;12.75;8.73;;;1.20;99.90;;;;;;5073359;28;20044;-82
2023/12/04 09:50:54;;;;;;;14.00;8.43;;;1.20;99.90;;;;;;5072278;28;20518;-82
2023/12/04 09:53:21;;;;;;;14.52;9.63;;;1.20;99.90;;;;;;5055339;28;20048;-81
2023/12/04 09:55:50;;;;;;;13.07;8.52;;;1.20;99.90;;;;;;5073430;28;20109;-81
2023/12/04 09:58:25;;;;;;;15.13;9.70;;;1.30;99.90;;;;;;5073244;28;20044;-82
2023/12/04 10:00:54;;;;;;;11.65;7.47;;;1.30;99.90;;;;;;5071844;28;20099;-81
2023/12/04 10:03:20;;;;;;;14.45;8.43;;;1.30;99.90;;;;;;5073047;28;20094;-82
2023/12/04 10:05:46;;;;;;;12.75;8.48;;;1.30;99.90;;;;;;5073296;28;20048;-82
2023/12/04 10:08:12;;;;;;;12.90;8.43;;;1.40;99.90;;;;;;5073047;28;20041;-82
2023/12/04 10:10:38;;;;;;;13.03;9.27;;;1.40;99.90;;;;;;5073511;28;20071;-83
2023/12/04 10:13:04;;;;;;;13.50;8.53;;;1.30;99.90;;;;;;5073296;28;20069;-82
2023/12/04 10:15:29;;;;;;;13.43;8.17;;;1.40;99.90;;;;;;5072977;28;20051;-82
2023/12/04 10:17:55;;;;;;;12.90;8.80;;;1.40;99.90;;;;;;5072226;28;20048;-82
2023/12/04 10:20:21;;;;;;;14.20;9.73;;;1.40;99.90;;;;;;5072965;28;20131;-82
2023/12/04 10:23:01;;;;;;;13.55;8.38;;;1.40;99.90;;;;;;5073135;28;20048;-82
2023/12/04 10:25:29;;;;;;;13.95;8.32;;;1.50;99.90;;;;;;5072856;28;20080;-82
2023/12/04 10:28:09;;;;;;;13.00;8.13;;;1.40;99.90;;;;;;5073186;28;20388;-82
2023/12/04 10:30:35;;;;;;;13.82;8.60;;;1.50;99.90;;;;;;5073197;28;20067;-81
2023/12/04 10:33:05;;;;;;;11.50;7.13;;;1.50;99.90;;;;;;5071875;28;20048;-81
2023/12/04 10:35:32;;;;;;;12.27;7.70;;;1.50;99.90;;;;;;5072804;28;20453;-82
2023/12/04 10:37:59;;;;;;;12.02;8.00;;;1.60;99.90;;;;;;5073071;28;20059;-82
2023/12/04 10:40:31;;;;;;;13.15;8.73;;;1.60;99.90;;;;;;5072768;28;20048;-82
2023/12/04 10:43:08;;;;;;;13.07;8.48;;;1.70;99.90;;;;;;5072629;28;20497;-82
2023/12/04 10:45:36;;;;;;;11.13;7.50;;;1.70;99.90;;;;;;5072591;28;20050;-82
2023/12/04 10:48:04;;;;;;;12.32;8.30;;;1.70;99.90;;;;;;5072828;28;20048;-82
2023/12/04 10:50:37;;;;;;;11.63;7.28;;;1.70;99.90;;;;;;5075799;28;20057;-82
2023/12/04 10:53:13;;;;;;;12.27;8.63;;;1.70;99.90;;;;;;5076989;28;20056;-82
2023/12/04 10:55:39;;;;;;;;;;;1.80;99.90;;;;;;5075959;28;20053;-82
2023/12/04 10:58:14;;;;;;;12.23;7.72;;;1.80;99.90;;;;;;5076742;28;19989;-81
2023/12/04 11:00:50;;;;;;;12.77;8.48;;;1.80;99.90;;;;;;5076421;28;20162;-82
2023/12/04 11:03:24;;;;;;;13.52;8.85;;;1.80;99.90;;;;;;5076577;28;20094;-82
2023/12/04 11:05:55;;;;;;;13.70;8.13;;;1.80;99.90;;;;;;5076575;28;20546;-81
2023/12/04 11:08:24;;;;;;;12.00;8.45;;;1.80;99.90;;;;;;5076289;28;20150;-82
2023/12/04 11:10:58;;;;;;;13.45;8.27;;;1.80;99.90;;;;;;5076403;28;20102;-81
2023/12/04 11:13:37;;;;;;;14.32;8.23;;;1.80;99.90;;;;;;5076196;28;20045;-82
2023/12/04 11:16:11;;;;;;;12.48;8.15;;;1.80;99.90;;;;;;5076300;28;20044;-82
2023/12/04 11:18:40;;;;;;;17.13;9.25;;;1.70;99.90;;;;;;5076123;28;20052;-82
2023/12/04 11:21:10;;;;;;;13.75;9.02;;;1.80;99.90;;;;;;5076272;28;20051;-82
2023/12/04 11:23:38;;;;;;;13.90;9.63;;;1.80;99.90;;;;;;5074683;28;20059;-83
2023/12/04 11:26:05;;;;;;;13.68;8.52;;;1.80;99.90;;;;;;5075893;28;20489;-83
2023/12/04 11:28:32;;;;;;;13.80;9.52;;;1.70;99.90;;;;;;5075879;28;20059;-83
2023/12/04 11:31:00;;;;;;;14.80;9.57;;;1.70;99.90;;;;;;5075790;28;20507;-83
2023/12/04 11:33:26;;;;;;;16.08;8.60;;;1.70;99.90;;;;;;5075906;28;20401;-83
2023/12/04 11:35:52;;;;;;;13.37;9.03;;;1.70;99.90;;;;;;5075987;28;20044;-83
2023/12/04 11:38:18;;;;;;;13.27;8.43;;;1.70;99.90;;;;;;5075750;28;20051;-83
2023/12/04 11:40:46;;;;;;;13.90;9.35;;;1.70;99.90;;;;;;5075875;28;20048;-83
2023/12/04 11:43:23;;;;;;;14.73;10.32;;;1.60;99.90;;;;;;5075797;28;20048;-83
2023/12/04 11:45:49;;;;;;;15.50;9.75;;;1.70;99.90;;;;;;5075778;28;20485;-82
2023/12/04 11:48:15;;;;;;;14.03;9.47;;;1.70;99.90;;;;;;5075747;28;20048;-83
2023/12/04 11:50:43;;;;;;;16.87;10.53;;;1.60;99.90;;;;;;5075532;28;20088;-83
2023/12/04 11:53:13;;;;;;;13.25;8.63;;;1.70;99.90;;;;;;5075795;28;20395;-82
2023/12/04 11:55:43;;;;;;;12.52;8.30;;;1.70;99.90;;;;;;5075539;28;20558;-82
2023/12/04 11:58:10;;;;;;;13.45;8.50;;;1.60;99.90;;;;;;5075788;28;20048;-83
2023/12/04 12:00:37;;;;;;;16.13;9.60;;;1.60;99.90;;;;;;5075283;28;20060;-83
2023/12/04 12:03:06;;;;;;;12.10;8.25;;;1.70;99.90;;;;;;5075644;28;20052;-82
2023/12/04 12:05:35;;;;;;;13.45;9.63;;;1.70;99.90;;;;;;5073916;28;20047;-82
2023/12/04 12:08:02;;;;;;;13.82;9.27;;;1.70;99.90;;;;;;5075377;28;20123;-82
2023/12/04 12:10:30;;;;;;;13.60;9.30;;;1.60;99.90;;;;;;5075498;28;20044;-82
2023/12/04 12:12:56;;;;;;;13.52;9.20;;;1.60;99.90;;;;;;5075353;28;20055;-82
2023/12/04 12:15:22;;;;;;;13.60;8.80;;;1.60;99.90;;;;;;5075159;28;20401;-82
2023/12/04 12:17:49;;;;;;;12.60;8.23;;;1.70;99.90;;;;;;5075596;28;20048;-82
2023/12/04 12:20:15;;;;;;;13.10;8.45;;;1.60;99.90;;;;;;5075215;28;20044;-82
2023/12/04 12:22:43;;;;;;;13.07;8.63;;;1.60;99.90;;;;;;5074984;28;20048;-82
2023/12/04 12:25:10;;;;;;;13.73;8.93;;;1.60;99.90;;;;;;5075276;28;20098;-82
2023/12/04 12:27:37;;;;;;;14.73;8.63;;;1.60;99.90;;;;;;5074929;28;20041;-82
2023/12/04 12:30:04;;;;;;;12.55;9.15;;;1.70;99.90;;;;;;5075027;28;20044;-82
2023/12/04 12:32:36;;;;;;;12.77;8.48;;;1.60;99.90;;;;;;5074744;28;20098;-82
2023/12/04 12:35:03;;;;;;;15.95;9.07;;;1.60;99.90;;;;;;5074866;28;20037;-83
2023/12/04 12:37:29;;;;;;;15.88;9.38;;;1.60;99.90;;;;;;5074618;28;20041;-82